sensor_id;sensor_type;location;lat;lon;timestamp;pressure;altitude;pressure_sealevel;temperature;humidity
64253;BME280;50592;52.958;-7.470;2023-01-19T00:01:15;99696.66;;;-0.48;100.00
64253;BME280;50592;52.958;-7.470;2023-01-19T00:03:41;99705.28;;;-0.48;100.00
64253;BME280;50592;52.958;-7.470;2023-01-19T00:06:11;99701.94;;;-0.50;100.00
64253;BME280;50592;52.958;-7.470;2023-01-19T00:08:41;99696.19;;;-0.55;100.00
64253;BME280;50592;52.958;-7.470;2023-01-19T00:11:11;99684.59;;;-0.64;100.00
64253;BME280;50592;52.958;-7.470;2023-01-19T00:13:40;99679.69;;;-0.69;100.00
64253;BME280;50592;52.958;-7.470;2023-01-19T00:16:07;99680.03;;;-0.75;100.00
64253;BME280;50592;52.958;-7.470;2023-01-19T00:18:37;99673.25;;;-0.78;100.00
64253;BME280;50592;52.958;-7.470;2023-01-19T00:21:07;99678.72;;;-0.82;100.00
64253;BME280;50592;52.958;-7.470;2023-01-19T00:23:37;99681.31;;;-0.82;100.00
64253;BME280;50592;52.958;-7.470;2023-01-19T00:26:07;99675.31;;;-0.83;100.00
64253;BME280;50592;52.958;-7.470;2023-01-19T00:28:38;99674.63;;;-0.86;100.00
64253;BME280;50592;52.958;-7.470;2023-01-19T00:31:07;99671.69;;;-0.80;100.00
64253;BME280;50592;52.958;-7.470;2023-01-19T00:33:37;99676.59;;;-0.76;100.00
64253;BME280;50592;52.958;-7.470;2023-01-19T00:36:08;99668.44;;;-0.69;100.00
64253;BME280;50592;52.958;-7.470;2023-01-19T00:38:34;99667.41;;;-0.67;100.00
64253;BME280;50592;52.958;-7.470;2023-01-19T00:41:03;99663.72;;;-0.63;100.00
64253;BME280;50592;52.958;-7.470;2023-01-19T00:43:30;99656.75;;;-0.62;100.00
64253;BME280;50592;52.958;-7.470;2023-01-19T00:45:59;99650.66;;;-0.61;100.00
64253;BME280;50592;52.958;-7.470;2023-01-19T00:48:26;99656.66;;;-0.60;100.00
64253;BME280;50592;52.958;-7.470;2023-01-19T00:50:54;99652.22;;;-0.58;100.00
64253;BME280;50592;52.958;-7.470;2023-01-19T00:53:21;99654.66;;;-0.55;100.00
64253;BME280;50592;52.958;-7.470;2023-01-19T00:55:51;99651.69;;;-0.49;100.00
64253;BME280;50592;52.958;-7.470;2023-01-19T00:58:18;99641.47;;;-0.52;100.00
64253;BME280;50592;52.958;-7.470;2023-01-19T01:00:47;99639.44;;;-0.47;100.00
64253;BME280;50592;52.958;-7.470;2023-01-19T01:03:14;99648.78;;;-0.44;100.00
64253;BME280;50592;52.958;-7.470;2023-01-19T01:05:44;99632.22;;;-0.42;100.00
64253;BME280;50592;52.958;-7.470;2023-01-19T01:08:10;99635.81;;;-0.44;100.00
64253;BME280;50592;52.958;-7.470;2023-01-19T01:10:39;99634.25;;;-0.47;100.00
64253;BME280;50592;52.958;-7.470;2023-01-19T01:13:06;99632.03;;;-0.53;100.00
64253;BME280;50592;52.958;-7.470;2023-01-19T01:15:36;99631.38;;;-0.57;100.00
64253;BME280;50592;52.958;-7.470;2023-01-19T01:18:03;99629.81;;;-0.59;100.00
64253;BME280;50592;52.958;-7.470;2023-01-19T01:20:33;99629.81;;;-0.59;100.00
64253;BME280;50592;52.958;-7.470;2023-01-19T01:23:04;99635.91;;;-0.60;100.00
64253;BME280;50592;52.958;-7.470;2023-01-19T01:25:34;99636.56;;;-0.57;100.00
64253;BME280;50592;52.958;-7.470;2023-01-19T01:28:06;99640.75;;;-0.54;100.00
64253;BME280;50592;52.958;-7.470;2023-01-19T01:30:36;99634.63;;;-0.53;100.00
64253;BME280;50592;52.958;-7.470;2023-01-19T01:33:08;99627.59;;;-0.51;100.00
64253;BME280;50592;52.958;-7.470;2023-01-19T01:35:36;99637.97;;;-0.51;100.00
64253;BME280;50592;52.958;-7.470;2023-01-19T01:38:08;99626.09;;;-0.55;100.00
64253;BME280;50592;52.958;-7.470;2023-01-19T01:40:38;99634.25;;;-0.61;100.00
64253;BME280;50592;52.958;-7.470;2023-01-19T01:43:12;99633.25;;;-0.73;100.00
64253;BME280;50592;52.958;-7.470;2023-01-19T01:45:43;99628.59;;;-0.83;100.00
64253;BME280;50592;52.958;-7.470;2023-01-19T01:48:25;99614.03;;;-0.85;100.00
64253;BME280;50592;52.958;-7.470;2023-01-19T01:51:01;99614.78;;;-0.83;100.00
64253;BME280;50592;52.958;-7.470;2023-01-19T01:56:50;99614.88;;;-0.85;100.00
64253;BME280;50592;52.958;-7.470;2023-01-19T01:59:26;99604.22;;;-0.80;100.00
64253;BME280;50592;52.958;-7.470;2023-01-19T02:02:09;99598.84;;;-0.77;100.00
64253;BME280;50592;52.958;-7.470;2023-01-19T02:05:08;99605.78;;;-0.78;100.00
64253;BME280;50592;52.958;-7.470;2023-01-19T02:10:34;99597.00;;;-0.75;100.00
64253;BME280;50592;52.958;-7.470;2023-01-19T02:13:23;99600.41;;;-0.75;100.00
64253;BME280;50592;52.958;-7.470;2023-01-19T02:15:56;99590.97;;;-0.76;100.00
64253;BME280;50592;52.958;-7.470;2023-01-19T02:18:27;99597.00;;;-0.75;100.00
64253;BME280;50592;52.958;-7.470;2023-01-19T02:21:11;99593.28;;;-0.71;100.00
64253;BME280;50592;52.958;-7.470;2023-01-19T02:23:44;99600.97;;;-0.69;100.00
64253;BME280;50592;52.958;-7.470;2023-01-19T02:26:15;99593.09;;;-0.68;100.00
64253;BME280;50592;52.958;-7.470;2023-01-19T02:28:51;99593.00;;;-0.66;100.00
64253;BME280;50592;52.958;-7.470;2023-01-19T02:31:23;99581.78;;;-0.67;100.00
64253;BME280;50592;52.958;-7.470;2023-01-19T02:33:53;99578.38;;;-0.67;100.00
64253;BME280;50592;52.958;-7.470;2023-01-19T02:36:26;99564.34;;;-0.65;100.00
64253;BME280;50592;52.958;-7.470;2023-01-19T02:38:58;99568.50;;;-0.62;100.00
64253;BME280;50592;52.958;-7.470;2023-01-19T02:41:35;99573.69;;;-0.62;100.00
64253;BME280;50592;52.958;-7.470;2023-01-19T02:44:08;99560.81;;;-0.64;100.00
64253;BME280;50592;52.958;-7.470;2023-01-19T02:46:39;99566.09;;;-0.65;100.00
64253;BME280;50592;52.958;-7.470;2023-01-19T02:49:07;99567.88;;;-0.66;100.00
64253;BME280;50592;52.958;-7.470;2023-01-19T02:51:36;99568.59;;;-0.64;100.00
64253;BME280;50592;52.958;-7.470;2023-01-19T03:04:43;99564.72;;;-0.56;100.00
64253;BME280;50592;52.958;-7.470;2023-01-19T03:07:22;99556.09;;;-0.57;100.00
64253;BME280;50592;52.958;-7.470;2023-01-19T03:10:07;99558.03;;;-0.60;100.00
64253;BME280;50592;52.958;-7.470;2023-01-19T03:12:47;99553.03;;;-0.64;100.00
64253;BME280;50592;52.958;-7.470;2023-01-19T03:15:23;99553.78;;;-0.61;100.00
64253;BME280;50592;52.958;-7.470;2023-01-19T03:17:52;99554.72;;;-0.63;100.00
64253;BME280;50592;52.958;-7.470;2023-01-19T03:20:23;99556.09;;;-0.57;100.00
64253;BME280;50592;52.958;-7.470;2023-01-19T03:23:00;99544.72;;;-0.54;100.00
64253;BME280;50592;52.958;-7.470;2023-01-19T03:25:35;99532.44;;;-0.52;100.00
64253;BME280;50592;52.958;-7.470;2023-01-19T03:28:03;99532.44;;;-0.52;100.00
64253;BME280;50592;52.958;-7.470;2023-01-19T03:30:39;99542.44;;;-0.46;100.00
64253;BME280;50592;52.958;-7.470;2023-01-19T03:33:19;99542.34;;;-0.44;100.00
64253;BME280;50592;52.958;-7.470;2023-01-19T03:36:03;99536.16;;;-0.42;100.00
64253;BME280;50592;52.958;-7.470;2023-01-19T03:38:36;99529.91;;;-0.39;100.00
64253;BME280;50592;52.958;-7.470;2023-01-19T03:41:10;99525.66;;;-0.40;100.00
64253;BME280;50592;52.958;-7.470;2023-01-19T03:43:42;99526.97;;;-0.47;100.00
64253;BME280;50592;52.958;-7.470;2023-01-19T03:46:14;99522.81;;;-0.50;100.00
64253;BME280;50592;52.958;-7.470;2023-01-19T03:48:45;99516.88;;;-0.52;100.00
64253;BME280;50592;52.958;-7.470;2023-01-19T03:51:16;99518.38;;;-0.48;100.00
64253;BME280;50592;52.958;-7.470;2023-01-19T03:53:43;99519.28;;;-0.49;100.00
64253;BME280;50592;52.958;-7.470;2023-01-19T03:56:21;99522.53;;;-0.45;100.00
64253;BME280;50592;52.958;-7.470;2023-01-19T03:58:51;99520.97;;;-0.48;100.00
64253;BME280;50592;52.958;-7.470;2023-01-19T04:01:21;99515.03;;;-0.50;100.00
64253;BME280;50592;52.958;-7.470;2023-01-19T04:03:48;99531.63;;;-0.53;100.00
64253;BME280;50592;52.958;-7.470;2023-01-19T04:06:19;99522.25;;;-0.55;100.00
64253;BME280;50592;52.958;-7.470;2023-01-19T04:08:50;99506.59;;;-0.54;100.00
64253;BME280;50592;52.958;-7.470;2023-01-19T04:11:17;99514.28;;;-0.52;100.00
64253;BME280;50592;52.958;-7.470;2023-01-19T04:13:47;99518.97;;;-0.44;100.00
64253;BME280;50592;52.958;-7.470;2023-01-19T04:16:17;99514.44;;;-0.41;100.00
64253;BME280;50592;52.958;-7.470;2023-01-19T04:18:46;99513.50;;;-0.40;100.00
64253;BME280;50592;52.958;-7.470;2023-01-19T04:21:16;99508.13;;;-0.36;100.00
64253;BME280;50592;52.958;-7.470;2023-01-19T04:23:47;99517.41;;;-0.32;100.00
64253;BME280;50592;52.958;-7.470;2023-01-19T04:26:15;99520.81;;;-0.32;100.00
64253;BME280;50592;52.958;-7.470;2023-01-19T04:28:44;99521.53;;;-0.30;100.00
64253;BME280;50592;52.958;-7.470;2023-01-19T04:31:11;99512.09;;;-0.31;100.00
64253;BME280;50592;52.958;-7.470;2023-01-19T04:33:41;99509.31;;;-0.28;100.00
64253;BME280;50592;52.958;-7.470;2023-01-19T04:36:08;99510.22;;;-0.29;100.00
64253;BME280;50592;52.958;-7.470;2023-01-19T04:38:37;99513.56;;;-0.27;100.00
64253;BME280;50592;52.958;-7.470;2023-01-19T04:41:04;99512.91;;;-0.30;100.00
64253;BME280;50592;52.958;-7.470;2023-01-19T04:43:34;99507.72;;;-0.30;100.00
64253;BME280;50592;52.958;-7.470;2023-01-19T04:46:00;99508.66;;;-0.31;100.00
64253;BME280;50592;52.958;-7.470;2023-01-19T04:48:30;99512.41;;;-0.35;100.00
64253;BME280;50592;52.958;-7.470;2023-01-19T04:51:00;99513.50;;;-0.40;100.00
64253;BME280;50592;52.958;-7.470;2023-01-19T04:53:30;99514.81;;;-0.47;100.00
64253;BME280;50592;52.958;-7.470;2023-01-19T04:55:57;99508.53;;;-0.57;100.00
64253;BME280;50592;52.958;-7.470;2023-01-19T04:58:28;99507.16;;;-0.63;100.00
64253;BME280;50592;52.958;-7.470;2023-01-19T05:00:58;99508.91;;;-0.64;100.00
64253;BME280;50592;52.958;-7.470;2023-01-19T05:03:28;99507.91;;;-0.61;100.00
64253;BME280;50592;52.958;-7.470;2023-01-19T05:05:57;99505.41;;;-0.63;100.00
64253;BME280;50592;52.958;-7.470;2023-01-19T05:08:24;99511.78;;;-0.68;100.00
64253;BME280;50592;52.958;-7.470;2023-01-19T05:10:54;99499.66;;;-0.68;100.00
64253;BME280;50592;52.958;-7.470;2023-01-19T05:13:23;99497.81;;;-0.66;100.00
64253;BME280;50592;52.958;-7.470;2023-01-19T05:15:53;99500.22;;;-0.63;100.00
64253;BME280;50592;52.958;-7.470;2023-01-19T05:18:22;99500.22;;;-0.63;100.00
64253;BME280;50592;52.958;-7.470;2023-01-19T05:20:49;99494.47;;;-0.68;100.00
64253;BME280;50592;52.958;-7.470;2023-01-19T05:23:18;99492.81;;;-0.69;100.00
64253;BME280;50592;52.958;-7.470;2023-01-19T05:25:45;99498.28;;;-0.73;100.00
64253;BME280;50592;52.958;-7.470;2023-01-19T05:28:15;99499.84;;;-0.71;100.00
64253;BME280;50592;52.958;-7.470;2023-01-19T05:30:45;99499.66;;;-0.68;100.00
64253;BME280;50592;52.958;-7.470;2023-01-19T05:33:15;99503.63;;;-0.62;100.00
64253;BME280;50592;52.958;-7.470;2023-01-19T05:35:41;99509.47;;;-0.58;100.00
64253;BME280;50592;52.958;-7.470;2023-01-19T05:38:10;99507.44;;;-0.53;100.00
64253;BME280;50592;52.958;-7.470;2023-01-19T05:40:37;99500.38;;;-0.51;100.00
64253;BME280;50592;52.958;-7.470;2023-01-19T05:43:06;99502.78;;;-0.48;100.00
64253;BME280;50592;52.958;-7.470;2023-01-19T05:45:33;99502.03;;;-0.50;100.00
64253;BME280;50592;52.958;-7.470;2023-01-19T05:48:07;99518.28;;;-0.46;100.00
64253;BME280;50592;52.958;-7.470;2023-01-19T05:50:34;99509.81;;;-0.50;100.00
64253;BME280;50592;52.958;-7.470;2023-01-19T05:53:04;99522.91;;;-0.52;100.00
64253;BME280;50592;52.958;-7.470;2023-01-19T05:55:34;99518.75;;;-0.54;100.00
64253;BME280;50592;52.958;-7.470;2023-01-19T05:58:00;99532.81;;;-0.58;100.00
64253;BME280;50592;52.958;-7.470;2023-01-19T06:00:29;99527.72;;;-0.60;100.00
64253;BME280;50592;52.958;-7.470;2023-01-19T06:02:56;99530.91;;;-0.69;100.00
64253;BME280;50592;52.958;-7.470;2023-01-19T06:05:26;99532.22;;;-0.77;100.00
64253;BME280;50592;52.958;-7.470;2023-01-19T06:07:55;99533.13;;;-0.78;100.00
64253;BME280;50592;52.958;-7.470;2023-01-19T06:10:25;99530.53;;;-0.78;100.00
64253;BME280;50592;52.958;-7.470;2023-01-19T06:12:52;99521.94;;;-0.78;100.00
64253;BME280;50592;52.958;-7.470;2023-01-19T06:15:22;99526.94;;;-0.75;100.00
64253;BME280;50592;52.958;-7.470;2023-01-19T06:17:51;99528.69;;;-0.76;100.00
64253;BME280;50592;52.958;-7.470;2023-01-19T06:20:18;99528.78;;;-0.77;100.00
64253;BME280;50592;52.958;-7.470;2023-01-19T06:22:48;99540.09;;;-0.78;100.00
64253;BME280;50592;52.958;-7.470;2023-01-19T06:25:18;99539.44;;;-0.82;100.00
64253;BME280;50592;52.958;-7.470;2023-01-19T06:27:45;99548.97;;;-0.82;100.00
64253;BME280;50592;52.958;-7.470;2023-01-19T06:30:14;99539.72;;;-0.86;100.00
64253;BME280;50592;52.958;-7.470;2023-01-19T06:32:44;99551.66;;;-0.84;100.00
64253;BME280;50592;52.958;-7.470;2023-01-19T06:35:14;99546.66;;;-0.87;100.00
64253;BME280;50592;52.958;-7.470;2023-01-19T06:37:45;99549.44;;;-0.90;100.00
64253;BME280;50592;52.958;-7.470;2023-01-19T06:40:12;99550.66;;;-0.96;100.00
64253;BME280;50592;52.958;-7.470;2023-01-19T06:42:42;99558.53;;;-0.97;100.00
64253;BME280;50592;52.958;-7.470;2023-01-19T06:45:09;99558.81;;;-1.02;100.00
64253;BME280;50592;52.958;-7.470;2023-01-19T06:47:39;99551.94;;;-1.03;100.00
64253;BME280;50592;52.958;-7.470;2023-01-19T06:50:05;99556.41;;;-1.05;100.00
64253;BME280;50592;52.958;-7.470;2023-01-19T06:52:35;99555.66;;;-1.07;100.00
64253;BME280;50592;52.958;-7.470;2023-01-19T06:55:10;99557.41;;;-1.08;100.00
64253;BME280;50592;52.958;-7.470;2023-01-19T06:57:37;99562.69;;;-1.09;100.00
64253;BME280;50592;52.958;-7.470;2023-01-19T07:00:08;99552.38;;;-1.11;100.00
64253;BME280;50592;52.958;-7.470;2023-01-19T07:02:42;99560.84;;;-1.07;100.00
64253;BME280;50592;52.958;-7.470;2023-01-19T07:05:12;99563.53;;;-1.09;100.00
64253;BME280;50592;52.958;-7.470;2023-01-19T07:07:42;99554.09;;;-1.10;100.00
64253;BME280;50592;52.958;-7.470;2023-01-19T07:10:12;99556.09;;;-1.15;100.00
64253;BME280;50592;52.958;-7.470;2023-01-19T07:12:43;99556.28;;;-1.18;100.00
64253;BME280;50592;52.958;-7.470;2023-01-19T07:15:16;99561.09;;;-1.27;100.00
64253;BME280;50592;52.958;-7.470;2023-01-19T07:17:47;99563.94;;;-1.31;100.00
64253;BME280;50592;52.958;-7.470;2023-01-19T07:20:17;99563.19;;;-1.33;100.00
64253;BME280;50592;52.958;-7.470;2023-01-19T07:22:54;99573.56;;;-1.33;100.00
64253;BME280;50592;52.958;-7.470;2023-01-19T07:25:24;99572.75;;;-1.34;100.00
64253;BME280;50592;52.958;-7.470;2023-01-19T07:27:56;99572.75;;;-1.34;100.00
64253;BME280;50592;52.958;-7.470;2023-01-19T07:30:27;99578.19;;;-1.39;100.00
64253;BME280;50592;52.958;-7.470;2023-01-19T07:32:55;99577.44;;;-1.41;100.00
64253;BME280;50592;52.958;-7.470;2023-01-19T07:35:25;99587.06;;;-1.43;100.00
64253;BME280;50592;52.958;-7.470;2023-01-19T07:37:57;99585.41;;;-1.44;100.00
64253;BME280;50592;52.958;-7.470;2023-01-19T07:40:27;99593.00;;;-1.41;100.00
64253;BME280;50592;52.958;-7.470;2023-01-19T07:42:57;99598.28;;;-1.42;100.00
64253;BME280;50592;52.958;-7.470;2023-01-19T07:45:27;99598.19;;;-1.41;100.00
64253;BME280;50592;52.958;-7.470;2023-01-19T07:47:54;99603.28;;;-1.39;100.00
64253;BME280;50592;52.958;-7.470;2023-01-19T07:50:23;99603.09;;;-1.36;100.00
64253;BME280;50592;52.958;-7.470;2023-01-19T07:52:54;99607.25;;;-1.33;100.00
64253;BME280;50592;52.958;-7.470;2023-01-19T07:55:24;99610.88;;;-1.36;100.00
64253;BME280;50592;52.958;-7.470;2023-01-19T07:57:54;99608.47;;;-1.39;100.00
64253;BME280;50592;52.958;-7.470;2023-01-19T08:00:24;99609.31;;;-1.39;100.00
64253;BME280;50592;52.958;-7.470;2023-01-19T08:02:51;99617.91;;;-1.38;100.00
64253;BME280;50592;52.958;-7.470;2023-01-19T08:05:20;99619.59;;;-1.37;100.00
64253;BME280;50592;52.958;-7.470;2023-01-19T08:07:47;99624.88;;;-1.39;100.00
64253;BME280;50592;52.958;-7.470;2023-01-19T08:10:17;99627.53;;;-1.40;100.00
64253;BME280;50592;52.958;-7.470;2023-01-19T08:12:43;99625.19;;;-1.45;100.00
64253;BME280;50592;52.958;-7.470;2023-01-19T08:15:13;99625.44;;;-1.50;100.00
64253;BME280;50592;52.958;-7.470;2023-01-19T08:17:41;99630.50;;;-1.63;100.00
64253;BME280;50592;52.958;-7.470;2023-01-19T08:20:10;99627.59;;;-1.72;100.00
64253;BME280;50592;52.958;-7.470;2023-01-19T08:22:41;99634.78;;;-1.78;100.00
64253;BME280;50592;52.958;-7.470;2023-01-19T08:25:08;99640.47;;;-1.87;100.00
64253;BME280;50592;52.958;-7.470;2023-01-19T08:27:39;99655.25;;;-1.89;100.00
64253;BME280;50592;52.958;-7.470;2023-01-19T08:30:06;99661.69;;;-1.96;100.00
64253;BME280;50592;52.958;-7.470;2023-01-19T08:32:35;99665.34;;;-2.01;100.00
64253;BME280;50592;52.958;-7.470;2023-01-19T08:35:02;99675.78;;;-2.02;100.00
64253;BME280;50592;52.958;-7.470;2023-01-19T08:37:32;99689.59;;;-2.02;100.00
64253;BME280;50592;52.958;-7.470;2023-01-19T08:40:02;99682.75;;;-2.03;100.00
64253;BME280;50592;52.958;-7.470;2023-01-19T08:42:28;99684.31;;;-2.00;100.00
64253;BME280;50592;52.958;-7.470;2023-01-19T08:44:57;99684.16;;;-1.97;100.00
64253;BME280;50592;52.958;-7.470;2023-01-19T08:47:24;99697.13;;;-1.97;100.00
64253;BME280;50592;52.958;-7.470;2023-01-19T08:49:53;99696.03;;;-1.93;100.00
64253;BME280;50592;52.958;-7.470;2023-01-19T08:52:19;99700.06;;;-1.87;100.00
64253;BME280;50592;52.958;-7.470;2023-01-19T08:54:48;99693.53;;;-1.78;100.00
64253;BME280;50592;52.958;-7.470;2023-01-19T08:57:15;99695.13;;;-1.76;100.00
64253;BME280;50592;52.958;-7.470;2023-01-19T08:59:45;99696.44;;;-1.68;100.00
64253;BME280;50592;52.958;-7.470;2023-01-19T09:02:12;99690.84;;;-1.60;100.00
64253;BME280;50592;52.958;-7.470;2023-01-19T09:04:42;99694.69;;;-1.52;100.00
64253;BME280;50592;52.958;-7.470;2023-01-19T09:07:12;99702.06;;;-1.44;100.00
64253;BME280;50592;52.958;-7.470;2023-01-19T09:09:42;99705.97;;;-1.37;100.00
64253;BME280;50592;52.958;-7.470;2023-01-19T09:12:12;99708.28;;;-1.32;100.00
64253;BME280;50592;52.958;-7.470;2023-01-19T09:14:42;99715.81;;;-1.27;100.00
64253;BME280;50592;52.958;-7.470;2023-01-19T09:17:09;99715.63;;;-1.24;100.00
64253;BME280;50592;52.958;-7.470;2023-01-19T09:19:39;99716.81;;;-1.14;100.00
64253;BME280;50592;52.958;-7.470;2023-01-19T09:22:06;99713.00;;;-1.08;100.00
64253;BME280;50592;52.958;-7.470;2023-01-19T09:24:35;99715.00;;;-0.97;100.00
64253;BME280;50592;52.958;-7.470;2023-01-19T09:27:02;99718.16;;;-0.92;100.00
64253;BME280;50592;52.958;-7.470;2023-01-19T09:29:32;99729.78;;;-0.83;100.00
64253;BME280;50592;52.958;-7.470;2023-01-19T09:32:02;99726.75;;;-0.75;100.00
64253;BME280;50592;52.958;-7.470;2023-01-19T09:34:28;99732.31;;;-0.67;100.00
64253;BME280;50592;52.958;-7.470;2023-01-19T09:36:57;99741.50;;;-0.61;100.00
64253;BME280;50592;52.958;-7.470;2023-01-19T09:39:24;99744.94;;;-0.60;100.00
64253;BME280;50592;52.958;-7.470;2023-01-19T09:42:04;99744.41;;;-0.51;100.00
64253;BME280;50592;52.958;-7.470;2023-01-19T09:44:36;99748.50;;;-0.47;100.00
64253;BME280;50592;52.958;-7.470;2023-01-19T09:47:13;99739.41;;;-0.40;100.00
64253;BME280;50592;52.958;-7.470;2023-01-19T09:49:44;99746.91;;;-0.35;100.00
64253;BME280;50592;52.958;-7.470;2023-01-19T09:52:16;99745.72;;;-0.29;100.00
64253;BME280;50592;52.958;-7.470;2023-01-19T09:54:56;99748.72;;;-0.21;100.00
64253;BME280;50592;52.958;-7.470;2023-01-19T09:57:26;99756.41;;;-0.19;100.00
64253;BME280;50592;52.958;-7.470;2023-01-19T09:59:57;99766.44;;;-0.13;100.00
64253;BME280;50592;52.958;-7.470;2023-01-19T10:02:52;99775.53;;;-0.06;100.00
64253;BME280;50592;52.958;-7.470;2023-01-19T10:05:45;99776.75;;;0.03;100.00
64253;BME280;50592;52.958;-7.470;2023-01-19T10:11:18;99780.16;;;0.33;100.00
64253;BME280;50592;52.958;-7.470;2023-01-19T10:13:51;99791.63;;;0.43;100.00
64253;BME280;50592;52.958;-7.470;2023-01-19T10:16:47;99791.06;;;0.53;100.00
64253;BME280;50592;52.958;-7.470;2023-01-19T10:19:28;99797.66;;;0.58;100.00
64253;BME280;50592;52.958;-7.470;2023-01-19T10:22:04;99796.34;;;0.66;100.00
64253;BME280;50592;52.958;-7.470;2023-01-19T10:24:39;99796.34;;;0.66;100.00
64253;BME280;50592;52.958;-7.470;2023-01-19T10:27:29;99800.81;;;0.64;100.00
64253;BME280;50592;52.958;-7.470;2023-01-19T10:30:00;99804.44;;;0.61;100.00
64253;BME280;50592;52.958;-7.470;2023-01-19T10:32:33;99805.84;;;0.67;100.00
64253;BME280;50592;52.958;-7.470;2023-01-19T10:35:14;99812.31;;;0.74;100.00
64253;BME280;50592;52.958;-7.470;2023-01-19T10:37:58;99822.53;;;0.77;100.00
64253;BME280;50592;52.958;-7.470;2023-01-19T10:40:32;99825.78;;;0.81;100.00
64253;BME280;50592;52.958;-7.470;2023-01-19T10:43:34;99826.44;;;0.84;100.00
64253;BME280;50592;52.958;-7.470;2023-01-19T10:48:54;99841.19;;;0.84;100.00
64253;BME280;50592;52.958;-7.470;2023-01-19T10:51:25;99841.28;;;0.82;100.00
64253;BME280;50592;52.958;-7.470;2023-01-19T10:53:59;99842.75;;;0.86;100.00
64253;BME280;50592;52.958;-7.470;2023-01-19T10:56:33;99852.06;;;0.91;100.00
64253;BME280;50592;52.958;-7.470;2023-01-19T10:59:05;99850.16;;;0.93;100.00
64253;BME280;50592;52.958;-7.470;2023-01-19T11:01:35;99857.59;;;0.99;100.00
64253;BME280;50592;52.958;-7.470;2023-01-19T11:04:24;99867.31;;;1.10;100.00
64253;BME280;50592;52.958;-7.470;2023-01-19T11:07:16;99864.25;;;1.18;100.00
64253;BME280;50592;52.958;-7.470;2023-01-19T11:09:47;99866.56;;;1.22;100.00
64253;BME280;50592;52.958;-7.470;2023-01-19T11:12:20;99871.38;;;1.29;100.00
64253;BME280;50592;52.958;-7.470;2023-01-19T11:14:50;99869.47;;;1.31;100.00
64253;BME280;50592;52.958;-7.470;2023-01-19T11:17:23;99877.00;;;1.35;100.00
64253;BME280;50592;52.958;-7.470;2023-01-19T11:19:56;99874.84;;;1.42;100.00
64253;BME280;50592;52.958;-7.470;2023-01-19T11:22:30;99878.63;;;1.51;100.00
64253;BME280;50592;52.958;-7.470;2023-01-19T11:25:03;99890.41;;;1.57;100.00
64253;BME280;50592;52.958;-7.470;2023-01-19T11:27:35;99888.06;;;1.67;100.00
64253;BME280;50592;52.958;-7.470;2023-01-19T11:30:06;99899.94;;;1.71;100.00
64253;BME280;50592;52.958;-7.470;2023-01-19T11:32:37;99896.41;;;1.85;100.00
64253;BME280;50592;52.958;-7.470;2023-01-19T11:35:47;99899.78;;;2.00;100.00
64253;BME280;50592;52.958;-7.470;2023-01-19T11:38:18;99891.25;;;2.11;100.00
64253;BME280;50592;52.958;-7.470;2023-01-19T11:40:56;99894.69;;;2.25;100.00
64253;BME280;50592;52.958;-7.470;2023-01-19T11:43:28;99898.25;;;2.37;100.00
64253;BME280;50592;52.958;-7.470;2023-01-19T11:45:58;99902.50;;;2.51;100.00
64253;BME280;50592;52.958;-7.470;2023-01-19T11:48:36;99904.91;;;2.67;100.00
64253;BME280;50592;52.958;-7.470;2023-01-19T11:51:18;99909.03;;;2.82;100.00
64253;BME280;50592;52.958;-7.470;2023-01-19T11:53:51;99922.81;;;2.97;100.00
64253;BME280;50592;52.958;-7.470;2023-01-19T11:56:25;99914.22;;;3.08;100.00
64253;BME280;50592;52.958;-7.470;2023-01-19T11:58:57;99920.34;;;3.20;100.00
64253;BME280;50592;52.958;-7.470;2023-01-19T12:01:33;99918.63;;;3.32;100.00
64253;BME280;50592;52.958;-7.470;2023-01-19T12:06:36;99916.84;;;3.57;100.00
64253;BME280;50592;52.958;-7.470;2023-01-19T12:11:46;99911.94;;;3.77;100.00
64253;BME280;50592;52.958;-7.470;2023-01-19T12:14:24;99914.91;;;3.84;100.00
64253;BME280;50592;52.958;-7.470;2023-01-19T12:16:58;99917.81;;;3.92;100.00
64253;BME280;50592;52.958;-7.470;2023-01-19T12:19:50;99913.78;;;3.88;100.00
64253;BME280;50592;52.958;-7.470;2023-01-19T12:22:20;99920.38;;;3.81;100.00
64253;BME280;50592;52.958;-7.470;2023-01-19T12:25:27;99909.56;;;3.74;100.00
64253;BME280;50592;52.958;-7.470;2023-01-19T12:27:46;99909.63;;;3.61;100.00
64253;BME280;50592;52.958;-7.470;2023-01-19T12:30:21;99906.78;;;3.64;100.00
64253;BME280;50592;52.958;-7.470;2023-01-19T12:32:48;99915.56;;;3.63;100.00
64253;BME280;50592;52.958;-7.470;2023-01-19T12:35:52;99907.81;;;3.62;100.00
64253;BME280;50592;52.958;-7.470;2023-01-19T12:41:22;99906.50;;;3.56;100.00
64253;BME280;50592;52.958;-7.470;2023-01-19T12:51:43;99909.69;;;3.48;100.00
64253;BME280;50592;52.958;-7.470;2023-01-19T12:55:39;99907.28;;;3.45;100.00
64253;BME280;50592;52.958;-7.470;2023-01-19T13:02:58;99906.91;;;3.38;100.00
64253;BME280;50592;52.958;-7.470;2023-01-19T13:13:32;99916.84;;;3.33;100.00
64253;BME280;50592;52.958;-7.470;2023-01-19T13:21:33;99915.63;;;3.26;100.00
64253;BME280;50592;52.958;-7.470;2023-01-19T13:24:09;99919.19;;;3.25;100.00
64253;BME280;50592;52.958;-7.470;2023-01-19T13:26:38;99929.84;;;3.21;100.00
64253;BME280;50592;52.958;-7.470;2023-01-19T13:29:12;99932.47;;;3.21;100.00
64253;BME280;50592;52.958;-7.470;2023-01-19T13:31:42;99932.69;;;3.18;100.00
64253;BME280;50592;52.958;-7.470;2023-01-19T13:34:22;99923.91;;;3.19;100.00
64253;BME280;50592;52.958;-7.470;2023-01-19T13:36:54;99930.78;;;3.20;100.00
64253;BME280;50592;52.958;-7.470;2023-01-19T13:39:33;99921.47;;;3.29;100.00
64253;BME280;50592;52.958;-7.470;2023-01-19T13:42:07;99921.75;;;3.38;100.00
64253;BME280;50592;52.958;-7.470;2023-01-19T13:44:45;99926.66;;;3.42;100.00
64253;BME280;50592;52.958;-7.470;2023-01-19T13:47:28;99922.97;;;3.45;100.00
64253;BME280;50592;52.958;-7.470;2023-01-19T13:50:01;99916.41;;;3.39;100.00
64253;BME280;50592;52.958;-7.470;2023-01-19T13:52:28;99925.50;;;3.33;100.00
64253;BME280;50592;52.958;-7.470;2023-01-19T13:55:00;99924.78;;;3.31;100.00
64253;BME280;50592;52.958;-7.470;2023-01-19T13:57:32;99924.09;;;3.29;100.00
64253;BME280;50592;52.958;-7.470;2023-01-19T14:05:30;99946.00;;;3.27;100.00
64253;BME280;50592;52.958;-7.470;2023-01-19T14:10:42;99946.63;;;3.30;100.00
64253;BME280;50592;52.958;-7.470;2023-01-19T14:15:49;99957.94;;;3.31;100.00